Algona, IA

5:28 PM CDT on September 23, 2017 (GMT -0500)
Algona Municipal

Weather History for KAXA - December, 2013

Change the Weather History Date:

Thursday, December 12, 2013

  Actual Average Record
Temperature  
Mean Temperature 12 °F -  
Max Temperature 23 °F 31 °F 51 °F (1998)
Min Temperature 1 °F 17 °F -9 °F (2000)
Degree Days  
Heating Degree Days 53    
Moisture  
Dew Point 9 °F    
Average Humidity 78    
Maximum Humidity 86    
Minimum Humidity 72    
Precipitation  
Precipitation 0.00 in - - ()
Sea Level Pressure  
Sea Level Pressure 30.20 in    
Wind  
Wind Speed 12 mph (SSW)    
Max Wind Speed 21 mph    
Max Gust Speed 24 mph    
Visibility 10 miles    
Events      
Averages and records for this station are not official NWS values.
T = Trace of Precipitation, MM = Missing Value Source: NWS Daily Summary

Daily Weather History Graph

Daily Weather History Graph

Search for Another Location

Airport or City:

Trip Planner

Search our weather history database for the weather conditions in past years. The results will help you decide how hot, cold, wet, or windy it might be!

Date:

Astronomy

Dec. 12, 2013 Rise Set
Actual Time 7:39 AM CST 4:42 PM CST
Civil Twilight 7:07 AM CST 5:14 PM CST
Nautical Twilight 6:31 AM CST 5:50 PM CST
Astronomical Twilight 5:56 AM CST 6:25 PM CST
Moon 1:54 PM CST (12/12) 2:57 AM CST (12/12)
Length of Visible Light 10h 07m
Length of Day
9h 02m
Waxing Gibbous, 80% of the Moon is Illuminated
Dec 12
Waxing Gibbous
Dec 17
Full
Dec 25
Last Quarter
Jan 1
New
Jan 7
First Quarter

Hourly Weather History & Observations

Time (CST) Temp. Windchill Dew Point Humidity Pressure Visibility Wind Dir Wind Speed Gust Speed Precip Events Conditions
12:15 AM 1.4 °F -20.5 °F -5.8 °F 72% 30.30 in 10.0 mi SSW 20.7 mph - N/A   Clear
12:35 AM 1.4 °F -19.9 °F -5.8 °F 72% 30.29 in 10.0 mi SSW 19.6 mph - N/A   Clear
12:55 AM 1.4 °F -19.9 °F -5.8 °F 72% 30.28 in 10.0 mi South 19.6 mph - N/A   Clear
1:15 AM 1.4 °F -20.5 °F -5.8 °F 72% 30.27 in 10.0 mi SSW 20.7 mph - N/A   Clear
1:35 AM 3.2 °F -17.1 °F -4.0 °F 72% 30.26 in 10.0 mi SSW 18.4 mph 24.2 mph N/A   Clear
1:55 AM 3.2 °F -15.9 °F -4.0 °F 72% 30.25 in 10.0 mi SSW 16.1 mph - N/A   Clear
2:15 AM 6.8 °F -12.4 °F -0.4 °F 72% 30.25 in 10.0 mi SW 18.4 mph - N/A   Clear
2:35 AM 6.8 °F -11.3 °F -0.4 °F 72% 30.25 in 10.0 mi SSW 16.1 mph - N/A   Clear
2:55 AM 6.8 °F -11.8 °F -0.4 °F 72% 30.25 in 10.0 mi SSW 17.3 mph - N/A   Clear
3:15 AM 6.8 °F -11.3 °F -0.4 °F 72% 30.24 in 10.0 mi SSW 16.1 mph - N/A   Clear
3:35 AM 6.8 °F -8.6 °F -0.4 °F 72% 30.24 in 10.0 mi SSW 11.5 mph 18.4 mph N/A   Clear
3:55 AM 6.8 °F -7.8 °F -0.4 °F 72% 30.24 in 10.0 mi SSW 10.4 mph - N/A   Clear
4:15 AM 8.6 °F -2.6 °F 1.4 °F 73% 30.25 in 10.0 mi SW 6.9 mph 12.7 mph N/A   Clear
4:35 AM 8.6 °F -6.3 °F 1.4 °F 73% 30.24 in 10.0 mi WSW 11.5 mph - N/A   Clear
4:55 AM 10.4 °F -3.3 °F 3.2 °F 73% 30.24 in 10.0 mi SW 10.4 mph - N/A   Clear
5:15 AM 10.4 °F -3.3 °F 3.2 °F 73% 30.24 in 10.0 mi SW 10.4 mph - N/A   Clear
5:35 AM 10.4 °F -2.4 °F 3.2 °F 73% 30.25 in 10.0 mi SW 9.2 mph - N/A   Clear
5:55 AM 10.4 °F -1.5 °F 3.2 °F 73% 30.25 in 10.0 mi SW 8.1 mph - N/A   Clear
6:15 AM 8.6 °F -1.3 °F 1.4 °F 73% 30.25 in 10.0 mi SSW 5.8 mph - N/A   Clear
6:35 AM 10.4 °F -3.3 °F 3.2 °F 73% 30.25 in 10.0 mi SW 10.4 mph - N/A   Clear
6:55 AM 10.4 °F -2.4 °F 5.0 °F 79% 30.25 in 10.0 mi SW 9.2 mph - N/A   Clear
7:15 AM 10.4 °F -2.4 °F 5.0 °F 79% 30.25 in 10.0 mi WSW 9.2 mph - N/A   Clear
7:35 AM 10.4 °F -1.5 °F 5.0 °F 79% 30.26 in 10.0 mi WSW 8.1 mph - N/A   Clear
7:55 AM 12.2 °F 1.7 °F 6.8 °F 79% 30.26 in 10.0 mi WSW 6.9 mph - N/A   Partly Cloudy
8:15 AM 12.2 °F 0.7 °F 6.8 °F 79% 30.25 in 10.0 mi WSW 8.1 mph - N/A   Partly Cloudy
8:35 AM 12.2 °F 1.7 °F 6.8 °F 79% 30.25 in 10.0 mi WSW 6.9 mph - N/A   Partly Cloudy
8:55 AM 14.0 °F 3.9 °F 8.6 °F 79% 30.25 in 10.0 mi WSW 6.9 mph - N/A   Mostly Cloudy
9:15 AM 14.0 °F 2.0 °F 8.6 °F 79% 30.26 in 10.0 mi WSW 9.2 mph - N/A   Overcast
9:35 AM 14.0 °F 1.2 °F 8.6 °F 79% 30.27 in 10.0 mi WSW 10.4 mph - N/A   Overcast
9:55 AM 15.8 °F 3.4 °F 10.4 °F 79% 30.27 in 10.0 mi WSW 10.4 mph - N/A   Overcast
10:15 AM 15.8 °F 4.2 °F 10.4 °F 79% 30.27 in 10.0 mi West 9.2 mph - N/A   Overcast
10:35 AM 17.6 °F 8.2 °F 10.4 °F 73% 30.28 in 10.0 mi West 6.9 mph - N/A   Overcast
10:55 AM 17.6 °F 12.3 °F 12.2 °F 79% 30.28 in 10.0 mi West 3.5 mph - N/A   Overcast
11:15 AM 19.4 °F 12.8 °F 12.2 °F 74% 30.28 in 10.0 mi West 4.6 mph - N/A   Overcast
11:35 AM 19.4 °F - 12.2 °F 74% 30.27 in 10.0 mi Calm Calm - N/A   Overcast
11:55 AM 19.4 °F - 12.2 °F 74% 30.26 in 10.0 mi Calm Calm - N/A   Scattered Clouds
12:15 PM 21.2 °F 13.6 °F 14.0 °F 74% 30.25 in 10.0 mi SW 5.8 mph - N/A   Mostly Cloudy
12:35 PM 21.2 °F 13.6 °F 14.0 °F 74% 30.24 in 10.0 mi SW 5.8 mph - N/A   Overcast
12:55 PM 21.2 °F 11.7 °F 14.0 °F 74% 30.23 in 10.0 mi SSW 8.1 mph - N/A   Overcast
1:15 PM 21.2 °F 12.6 °F 14.0 °F 74% 30.23 in 10.0 mi SW 6.9 mph - N/A   Overcast
1:35 PM 21.2 °F 11.7 °F 14.0 °F 74% 30.21 in 10.0 mi SSW 8.1 mph - N/A   Overcast
1:55 PM 21.2 °F 10.1 °F 15.8 °F 80% 30.20 in 10.0 mi SSW 10.4 mph - N/A   Overcast
2:15 PM 21.2 °F 10.9 °F 15.8 °F 80% 30.20 in 10.0 mi SSW 9.2 mph - N/A   Overcast
2:35 PM 23.0 °F 13.9 °F 15.8 °F 74% 30.19 in 10.0 mi SSW 8.1 mph - N/A   Mostly Cloudy
2:55 PM 23.0 °F 13.9 °F 15.8 °F 74% 30.19 in 10.0 mi SW 8.1 mph - N/A   Partly Cloudy
3:15 PM 23.0 °F 11.1 °F 15.8 °F 74% 30.19 in 10.0 mi SSW 12.7 mph - N/A   Clear
3:35 PM 21.2 °F 10.9 °F 15.8 °F 80% 30.19 in - SSW 9.2 mph - N/A   Clear
3:55 PM 21.2 °F 10.9 °F 15.8 °F 80% 30.18 in 10.0 mi SSW 9.2 mph - N/A   Partly Cloudy
4:15 PM 21.2 °F 12.6 °F 15.8 °F 80% 30.17 in 10.0 mi South 6.9 mph - N/A   Mostly Cloudy
4:35 PM 19.4 °F 10.4 °F 14.0 °F 80% 30.17 in 10.0 mi South 6.9 mph - N/A   Scattered Clouds
4:55 PM 17.6 °F 9.3 °F 14.0 °F 86% 30.16 in 10.0 mi South 5.8 mph - N/A   Mostly Cloudy
5:15 PM 19.4 °F 7.9 °F 15.8 °F 86% 30.16 in 10.0 mi South 10.4 mph - N/A   Overcast
5:35 PM 21.2 °F 10.9 °F 15.8 °F 80% 30.15 in 10.0 mi South 9.2 mph - N/A   Overcast
5:55 PM 21.2 °F 13.6 °F 17.6 °F 86% 30.15 in 10.0 mi South 5.8 mph - N/A   Overcast
6:15 PM 21.2 °F 12.6 °F 15.8 °F 80% 30.15 in 10.0 mi South 6.9 mph - N/A   Overcast
6:35 PM 19.4 °F 9.5 °F 15.8 °F 86% 30.14 in 10.0 mi South 8.1 mph - N/A   Mostly Cloudy
6:55 PM 17.6 °F 7.3 °F 14.0 °F 86% 30.13 in 10.0 mi South 8.1 mph - N/A   Scattered Clouds
7:15 PM 17.6 °F 5.7 °F 14.0 °F 86% 30.13 in 10.0 mi South 10.4 mph - N/A   Scattered Clouds
7:35 PM 19.4 °F 7.9 °F 14.0 °F 80% 30.12 in 10.0 mi South 10.4 mph - N/A   Partly Cloudy
7:55 PM 15.8 °F 3.4 °F 12.2 °F 86% 30.12 in 10.0 mi South 10.4 mph - N/A   Clear
8:15 PM 19.4 °F 7.2 °F 15.8 °F 86% 30.11 in 10.0 mi South 11.5 mph - N/A   Clear
8:35 PM 19.4 °F 8.6 °F 15.8 °F 86% 30.11 in 10.0 mi SSE 9.2 mph - N/A   Clear
8:55 PM 17.6 °F 7.3 °F 14.0 °F 86% 30.10 in 10.0 mi SSE 8.1 mph - N/A   Clear
9:15 PM 17.6 °F 6.4 °F 14.0 °F 86% 30.09 in 10.0 mi SSE 9.2 mph - N/A   Clear
9:35 PM 17.6 °F 7.3 °F 14.0 °F 86% 30.09 in 10.0 mi SSE 8.1 mph - N/A   Clear
9:55 PM 15.8 °F 5.1 °F 12.2 °F 86% 30.09 in 10.0 mi SSE 8.1 mph - N/A   Clear
10:15 PM 14.0 °F -0.2 °F 10.4 °F 86% 30.09 in 10.0 mi South 12.7 mph - N/A   Clear
10:35 PM 15.8 °F 4.2 °F 12.2 °F 86% 30.08 in 10.0 mi South 9.2 mph - N/A   Clear
10:55 PM 15.8 °F 5.1 °F 12.2 °F 86% 30.08 in 10.0 mi SSE 8.1 mph - N/A   Clear
11:15 PM 15.8 °F 5.1 °F 12.2 °F 86% 30.08 in 10.0 mi South 8.1 mph - N/A   Clear
11:35 PM 14.0 °F 2.9 °F 10.4 °F 86% 30.07 in 10.0 mi South 8.1 mph - N/A   Clear
11:55 PM 15.8 °F 7.2 °F 12.2 °F 86% 30.06 in 10.0 mi SE 5.8 mph - N/A   Clear